sensor_id;sensor_type;location;lat;lon;timestamp;temperature;humidity
18189;DHT22;9219;50.396;8.546;2022-10-20T00:01:06;10.30;99.90
18189;DHT22;9219;50.396;8.546;2022-10-20T00:08:41;10.40;99.90
18189;DHT22;9219;50.396;8.546;2022-10-20T00:11:10;10.40;99.90
18189;DHT22;9219;50.396;8.546;2022-10-20T00:13:38;10.40;99.90
18189;DHT22;9219;50.396;8.546;2022-10-20T00:16:06;10.30;99.90
18189;DHT22;9219;50.396;8.546;2022-10-20T00:18:33;10.00;99.90
18189;DHT22;9219;50.396;8.546;2022-10-20T00:21:04;9.90;99.90
18189;DHT22;9219;50.396;8.546;2022-10-20T00:23:33;10.00;99.90
18189;DHT22;9219;50.396;8.546;2022-10-20T00:28:43;10.20;99.90
18189;DHT22;9219;50.396;8.546;2022-10-20T00:31:11;10.10;99.90
18189;DHT22;9219;50.396;8.546;2022-10-20T00:33:39;10.30;99.90
18189;DHT22;9219;50.396;8.546;2022-10-20T00:36:10;10.30;99.90
18189;DHT22;9219;50.396;8.546;2022-10-20T00:38:39;10.20;99.90
18189;DHT22;9219;50.396;8.546;2022-10-20T00:41:08;10.00;99.90
18189;DHT22;9219;50.396;8.546;2022-10-20T00:43:44;9.80;99.90
18189;DHT22;9219;50.396;8.546;2022-10-20T00:51:21;9.60;99.90
18189;DHT22;9219;50.396;8.546;2022-10-20T00:53:57;9.40;99.90
18189;DHT22;9219;50.396;8.546;2022-10-20T00:56:26;9.30;99.90
18189;DHT22;9219;50.396;8.546;2022-10-20T00:58:53;9.00;99.90
18189;DHT22;9219;50.396;8.546;2022-10-20T01:01:22;9.00;99.90
18189;DHT22;9219;50.396;8.546;2022-10-20T01:03:50;8.90;99.90
18189;DHT22;9219;50.396;8.546;2022-10-20T01:06:21;9.20;99.90
18189;DHT22;9219;50.396;8.546;2022-10-20T01:11:51;9.20;99.90
18189;DHT22;9219;50.396;8.546;2022-10-20T01:14:29;9.20;99.90
18189;DHT22;9219;50.396;8.546;2022-10-20T01:17:09;9.30;99.90
18189;DHT22;9219;50.396;8.546;2022-10-20T01:20:26;9.20;99.90
18189;DHT22;9219;50.396;8.546;2022-10-20T01:23:47;9.20;99.90
18189;DHT22;9219;50.396;8.546;2022-10-20T01:26:36;9.30;99.90
18189;DHT22;9219;50.396;8.546;2022-10-20T01:29:12;9.30;99.90
18189;DHT22;9219;50.396;8.546;2022-10-20T01:36:56;9.20;99.90
18189;DHT22;9219;50.396;8.546;2022-10-20T01:39:30;9.00;99.90
18189;DHT22;9219;50.396;8.546;2022-10-20T01:42:03;8.90;99.90
18189;DHT22;9219;50.396;8.546;2022-10-20T01:44:34;9.00;99.90
18189;DHT22;9219;50.396;8.546;2022-10-20T01:47:03;9.20;99.90
18189;DHT22;9219;50.396;8.546;2022-10-20T01:49:31;9.30;99.90
18189;DHT22;9219;50.396;8.546;2022-10-20T01:52:00;9.40;99.90
18189;DHT22;9219;50.396;8.546;2022-10-20T01:59:50;9.40;99.90
18189;DHT22;9219;50.396;8.546;2022-10-20T02:02:34;9.30;99.90
18189;DHT22;9219;50.396;8.546;2022-10-20T02:05:39;9.10;99.90
18189;DHT22;9219;50.396;8.546;2022-10-20T02:08:13;9.10;99.90
18189;DHT22;9219;50.396;8.546;2022-10-20T02:10:44;9.20;99.90
18189;DHT22;9219;50.396;8.546;2022-10-20T02:13:13;9.20;99.90
18189;DHT22;9219;50.396;8.546;2022-10-20T02:15:45;9.30;99.90
18189;DHT22;9219;50.396;8.546;2022-10-20T02:22:26;9.00;99.90
18189;DHT22;9219;50.396;8.546;2022-10-20T02:24:55;9.10;99.90
18189;DHT22;9219;50.396;8.546;2022-10-20T02:27:26;9.20;99.90
18189;DHT22;9219;50.396;8.546;2022-10-20T02:29:57;8.90;99.90
18189;DHT22;9219;50.396;8.546;2022-10-20T02:32:26;8.70;99.90
18189;DHT22;9219;50.396;8.546;2022-10-20T02:34:57;8.70;99.90
18189;DHT22;9219;50.396;8.546;2022-10-20T02:37:33;8.40;99.90
18189;DHT22;9219;50.396;8.546;2022-10-20T02:45:10;8.50;99.90
18189;DHT22;9219;50.396;8.546;2022-10-20T02:47:40;8.30;99.90
18189;DHT22;9219;50.396;8.546;2022-10-20T02:50:08;8.40;99.90
18189;DHT22;9219;50.396;8.546;2022-10-20T02:52:38;8.40;99.90
18189;DHT22;9219;50.396;8.546;2022-10-20T02:55:07;8.70;99.90
18189;DHT22;9219;50.396;8.546;2022-10-20T02:57:35;8.50;99.90
18189;DHT22;9219;50.396;8.546;2022-10-20T03:00:04;8.50;99.90
18189;DHT22;9219;50.396;8.546;2022-10-20T03:07:39;8.20;99.90
18189;DHT22;9219;50.396;8.546;2022-10-20T03:10:07;7.90;99.90
18189;DHT22;9219;50.396;8.546;2022-10-20T03:12:35;7.70;99.90
18189;DHT22;9219;50.396;8.546;2022-10-20T03:15:03;7.70;99.90
18189;DHT22;9219;50.396;8.546;2022-10-20T03:17:31;7.70;99.90
18189;DHT22;9219;50.396;8.546;2022-10-20T03:19:59;7.70;99.90
18189;DHT22;9219;50.396;8.546;2022-10-20T03:22:28;7.70;99.90
18189;DHT22;9219;50.396;8.546;2022-10-20T03:27:51;7.70;99.90
18189;DHT22;9219;50.396;8.546;2022-10-20T03:30:22;7.80;99.90
18189;DHT22;9219;50.396;8.546;2022-10-20T03:32:54;7.70;99.90
18189;DHT22;9219;50.396;8.546;2022-10-20T03:35:22;7.60;99.90
18189;DHT22;9219;50.396;8.546;2022-10-20T03:37:49;7.50;99.90
18189;DHT22;9219;50.396;8.546;2022-10-20T03:40:16;7.50;99.90
18189;DHT22;9219;50.396;8.546;2022-10-20T03:42:44;7.50;99.90
18189;DHT22;9219;50.396;8.546;2022-10-20T03:50:17;7.80;99.90
18189;DHT22;9219;50.396;8.546;2022-10-20T03:52:46;7.70;99.90
18189;DHT22;9219;50.396;8.546;2022-10-20T03:55:14;7.50;99.90
18189;DHT22;9219;50.396;8.546;2022-10-20T03:57:41;7.60;99.90
18189;DHT22;9219;50.396;8.546;2022-10-20T04:00:11;7.50;99.90
18189;DHT22;9219;50.396;8.546;2022-10-20T04:02:41;7.50;99.90
18189;DHT22;9219;50.396;8.546;2022-10-20T04:05:11;7.60;99.90
18189;DHT22;9219;50.396;8.546;2022-10-20T04:07:40;7.60;99.90
18189;DHT22;9219;50.396;8.546;2022-10-20T04:10:09;7.70;99.90
18189;DHT22;9219;50.396;8.546;2022-10-20T04:12:56;7.60;99.90
18189;DHT22;9219;50.396;8.546;2022-10-20T04:15:23;7.60;99.90
18189;DHT22;9219;50.396;8.546;2022-10-20T04:17:52;7.70;99.90
18189;DHT22;9219;50.396;8.546;2022-10-20T04:20:20;7.60;99.90
18189;DHT22;9219;50.396;8.546;2022-10-20T04:22:47;7.60;99.90
18189;DHT22;9219;50.396;8.546;2022-10-20T04:25:15;7.60;99.90
18189;DHT22;9219;50.396;8.546;2022-10-20T04:27:42;7.70;99.90
18189;DHT22;9219;50.396;8.546;2022-10-20T04:33:37;7.70;99.90
18189;DHT22;9219;50.396;8.546;2022-10-20T04:36:07;7.70;99.90
18189;DHT22;9219;50.396;8.546;2022-10-20T04:38:38;7.70;99.90
18189;DHT22;9219;50.396;8.546;2022-10-20T04:41:05;7.60;99.90
18189;DHT22;9219;50.396;8.546;2022-10-20T04:43:36;7.50;99.90
18189;DHT22;9219;50.396;8.546;2022-10-20T04:46:04;7.50;99.90
18189;DHT22;9219;50.396;8.546;2022-10-20T04:48:34;7.30;99.90
18189;DHT22;9219;50.396;8.546;2022-10-20T04:51:06;7.40;99.90
18189;DHT22;9219;50.396;8.546;2022-10-20T04:53:35;7.40;99.90
18189;DHT22;9219;50.396;8.546;2022-10-20T04:59:21;7.40;99.90
18189;DHT22;9219;50.396;8.546;2022-10-20T05:01:52;7.60;99.90
18189;DHT22;9219;50.396;8.546;2022-10-20T05:04:29;7.40;99.90
18189;DHT22;9219;50.396;8.546;2022-10-20T05:07:27;7.40;99.90
18189;DHT22;9219;50.396;8.546;2022-10-20T05:10:10;7.50;99.90
18189;DHT22;9219;50.396;8.546;2022-10-20T05:12:41;7.60;99.90
18189;DHT22;9219;50.396;8.546;2022-10-20T05:15:12;7.40;99.90
18189;DHT22;9219;50.396;8.546;2022-10-20T05:17:40;7.40;99.90
18189;DHT22;9219;50.396;8.546;2022-10-20T05:23:03;7.50;99.90
18189;DHT22;9219;50.396;8.546;2022-10-20T05:25:30;7.50;99.90
18189;DHT22;9219;50.396;8.546;2022-10-20T05:28:03;7.50;99.90
18189;DHT22;9219;50.396;8.546;2022-10-20T05:30:42;7.40;99.90
18189;DHT22;9219;50.396;8.546;2022-10-20T05:33:10;7.40;99.90
18189;DHT22;9219;50.396;8.546;2022-10-20T05:35:38;7.50;99.90
18189;DHT22;9219;50.396;8.546;2022-10-20T05:38:07;7.60;99.90
18189;DHT22;9219;50.396;8.546;2022-10-20T05:43:31;7.50;99.90
18189;DHT22;9219;50.396;8.546;2022-10-20T05:46:00;7.70;99.90
18189;DHT22;9219;50.396;8.546;2022-10-20T05:48:29;7.80;99.90
18189;DHT22;9219;50.396;8.546;2022-10-20T05:51:06;7.80;99.90
18189;DHT22;9219;50.396;8.546;2022-10-20T05:53:39;7.70;99.90
18189;DHT22;9219;50.396;8.546;2022-10-20T05:56:11;7.70;99.90
18189;DHT22;9219;50.396;8.546;2022-10-20T05:58:42;7.80;99.90
18189;DHT22;9219;50.396;8.546;2022-10-20T06:04:00;7.70;99.90
18189;DHT22;9219;50.396;8.546;2022-10-20T06:06:29;7.60;99.90
18189;DHT22;9219;50.396;8.546;2022-10-20T06:08:58;7.70;99.90
18189;DHT22;9219;50.396;8.546;2022-10-20T06:11:27;7.70;99.90
18189;DHT22;9219;50.396;8.546;2022-10-20T06:13:55;7.70;99.90
18189;DHT22;9219;50.396;8.546;2022-10-20T06:16:24;7.70;99.90
18189;DHT22;9219;50.396;8.546;2022-10-20T06:18:53;7.80;99.90
18189;DHT22;9219;50.396;8.546;2022-10-20T06:21:23;7.70;99.90
18189;DHT22;9219;50.396;8.546;2022-10-20T06:28:57;7.70;99.90
18189;DHT22;9219;50.396;8.546;2022-10-20T06:31:41;8.00;99.90
18189;DHT22;9219;50.396;8.546;2022-10-20T06:34:10;8.10;99.90
18189;DHT22;9219;50.396;8.546;2022-10-20T06:36:44;8.10;99.90
18189;DHT22;9219;50.396;8.546;2022-10-20T06:39:16;8.20;99.90
18189;DHT22;9219;50.396;8.546;2022-10-20T06:41:47;8.10;99.90
18189;DHT22;9219;50.396;8.546;2022-10-20T06:44:19;8.10;99.90
18189;DHT22;9219;50.396;8.546;2022-10-20T06:52:17;8.20;99.90
18189;DHT22;9219;50.396;8.546;2022-10-20T06:54:46;8.30;99.90
18189;DHT22;9219;50.396;8.546;2022-10-20T06:57:14;8.30;99.90
18189;DHT22;9219;50.396;8.546;2022-10-20T06:59:41;8.20;99.90
18189;DHT22;9219;50.396;8.546;2022-10-20T07:02:10;8.40;99.90
18189;DHT22;9219;50.396;8.546;2022-10-20T07:04:38;8.50;99.90
18189;DHT22;9219;50.396;8.546;2022-10-20T07:07:06;8.60;99.90
18189;DHT22;9219;50.396;8.546;2022-10-20T07:14:34;8.80;99.90
18189;DHT22;9219;50.396;8.546;2022-10-20T07:17:03;8.80;99.90
18189;DHT22;9219;50.396;8.546;2022-10-20T07:19:30;9.10;99.90
18189;DHT22;9219;50.396;8.546;2022-10-20T07:22:04;9.20;99.90
18189;DHT22;9219;50.396;8.546;2022-10-20T07:24:32;9.20;99.90
18189;DHT22;9219;50.396;8.546;2022-10-20T07:27:03;9.40;99.90
18189;DHT22;9219;50.396;8.546;2022-10-20T07:29:32;9.40;99.90
18189;DHT22;9219;50.396;8.546;2022-10-20T07:37:20;9.10;99.90
18189;DHT22;9219;50.396;8.546;2022-10-20T07:39:47;8.80;99.90
18189;DHT22;9219;50.396;8.546;2022-10-20T07:42:15;8.70;99.90
18189;DHT22;9219;50.396;8.546;2022-10-20T07:44:42;9.00;99.90
18189;DHT22;9219;50.396;8.546;2022-10-20T07:47:12;9.40;99.90
18189;DHT22;9219;50.396;8.546;2022-10-20T07:49:40;9.60;99.90
18189;DHT22;9219;50.396;8.546;2022-10-20T07:52:10;9.70;99.90
18189;DHT22;9219;50.396;8.546;2022-10-20T07:57:24;9.80;99.90
18189;DHT22;9219;50.396;8.546;2022-10-20T07:59:52;10.10;99.90
18189;DHT22;9219;50.396;8.546;2022-10-20T08:02:20;9.90;99.90
18189;DHT22;9219;50.396;8.546;2022-10-20T08:04:49;9.90;99.90
18189;DHT22;9219;50.396;8.546;2022-10-20T08:07:17;9.70;99.90
18189;DHT22;9219;50.396;8.546;2022-10-20T08:09:44;9.10;99.90
18189;DHT22;9219;50.396;8.546;2022-10-20T08:12:12;8.80;99.90
18189;DHT22;9219;50.396;8.546;2022-10-20T08:22:39;9.40;99.90
18189;DHT22;9219;50.396;8.546;2022-10-20T08:25:10;9.40;99.90
18189;DHT22;9219;50.396;8.546;2022-10-20T08:27:41;9.30;99.90
18189;DHT22;9219;50.396;8.546;2022-10-20T08:30:11;9.40;99.90
18189;DHT22;9219;50.396;8.546;2022-10-20T08:32:52;9.30;99.90
18189;DHT22;9219;50.396;8.546;2022-10-20T08:35:21;9.10;99.90
18189;DHT22;9219;50.396;8.546;2022-10-20T08:37:54;9.20;99.90
18189;DHT22;9219;50.396;8.546;2022-10-20T08:40:25;9.60;99.90
18189;DHT22;9219;50.396;8.546;2022-10-20T08:48:00;9.90;99.90
18189;DHT22;9219;50.396;8.546;2022-10-20T08:50:31;9.80;99.90
18189;DHT22;9219;50.396;8.546;2022-10-20T08:52:59;9.90;99.90
18189;DHT22;9219;50.396;8.546;2022-10-20T08:55:29;9.90;99.90
18189;DHT22;9219;50.396;8.546;2022-10-20T08:58:01;10.10;99.90
18189;DHT22;9219;50.396;8.546;2022-10-20T09:00:30;10.20;99.90
18189;DHT22;9219;50.396;8.546;2022-10-20T09:03:08;9.90;99.90
18189;DHT22;9219;50.396;8.546;2022-10-20T09:05:40;9.80;99.90
18189;DHT22;9219;50.396;8.546;2022-10-20T09:13:25;9.80;99.90
18189;DHT22;9219;50.396;8.546;2022-10-20T09:15:58;9.60;99.90
18189;DHT22;9219;50.396;8.546;2022-10-20T09:18:29;9.70;99.90
18189;DHT22;9219;50.396;8.546;2022-10-20T09:21:00;9.80;99.90
18189;DHT22;9219;50.396;8.546;2022-10-20T09:23:34;9.70;99.90
18189;DHT22;9219;50.396;8.546;2022-10-20T09:26:12;9.80;99.90
18189;DHT22;9219;50.396;8.546;2022-10-20T09:29:06;9.50;99.90
18189;DHT22;9219;50.396;8.546;2022-10-20T09:36:51;9.50;99.90
18189;DHT22;9219;50.396;8.546;2022-10-20T09:39:20;9.30;99.90
18189;DHT22;9219;50.396;8.546;2022-10-20T09:41:48;9.40;99.90
18189;DHT22;9219;50.396;8.546;2022-10-20T09:44:20;9.80;99.90
18189;DHT22;9219;50.396;8.546;2022-10-20T09:46:51;9.70;99.90
18189;DHT22;9219;50.396;8.546;2022-10-20T09:49:24;9.60;99.90
18189;DHT22;9219;50.396;8.546;2022-10-20T09:51:56;9.70;99.90
18189;DHT22;9219;50.396;8.546;2022-10-20T09:59:37;9.60;99.90
18189;DHT22;9219;50.396;8.546;2022-10-20T10:02:28;9.60;99.90
18189;DHT22;9219;50.396;8.546;2022-10-20T10:05:12;9.90;99.90
18189;DHT22;9219;50.396;8.546;2022-10-20T10:07:40;10.30;99.90
18189;DHT22;9219;50.396;8.546;2022-10-20T10:10:24;10.10;99.90
18189;DHT22;9219;50.396;8.546;2022-10-20T10:12:57;10.20;99.90
18189;DHT22;9219;50.396;8.546;2022-10-20T10:15:30;10.30;99.90
18189;DHT22;9219;50.396;8.546;2022-10-20T10:23:18;10.40;99.90
18189;DHT22;9219;50.396;8.546;2022-10-20T10:25:51;10.60;99.90
18189;DHT22;9219;50.396;8.546;2022-10-20T10:28:37;10.40;99.90
18189;DHT22;9219;50.396;8.546;2022-10-20T10:31:20;10.70;99.90
18189;DHT22;9219;50.396;8.546;2022-10-20T10:33:53;10.70;99.90
18189;DHT22;9219;50.396;8.546;2022-10-20T10:36:35;10.80;99.90
18189;DHT22;9219;50.396;8.546;2022-10-20T10:39:12;10.90;99.90
18189;DHT22;9219;50.396;8.546;2022-10-20T10:41:59;11.00;99.90
18189;DHT22;9219;50.396;8.546;2022-10-20T10:47:47;10.90;99.90
18189;DHT22;9219;50.396;8.546;2022-10-20T10:50:26;10.70;99.90
18189;DHT22;9219;50.396;8.546;2022-10-20T10:53:06;10.70;99.90
18189;DHT22;9219;50.396;8.546;2022-10-20T10:55:46;10.80;99.90
18189;DHT22;9219;50.396;8.546;2022-10-20T10:58:27;10.90;99.90
18189;DHT22;9219;50.396;8.546;2022-10-20T11:01:06;10.90;99.90
18189;DHT22;9219;50.396;8.546;2022-10-20T11:03:59;11.00;99.90
18189;DHT22;9219;50.396;8.546;2022-10-20T11:06:35;11.10;99.90
18189;DHT22;9219;50.396;8.546;2022-10-20T11:09:36;11.20;99.90
18189;DHT22;9219;50.396;8.546;2022-10-20T11:12:24;11.30;99.90
18189;DHT22;9219;50.396;8.546;2022-10-20T11:15:05;11.40;99.90
18189;DHT22;9219;50.396;8.546;2022-10-20T11:17:47;11.20;99.90
18189;DHT22;9219;50.396;8.546;2022-10-20T11:20:28;11.20;99.90
18189;DHT22;9219;50.396;8.546;2022-10-20T11:23:30;11.00;99.90
18189;DHT22;9219;50.396;8.546;2022-10-20T11:26:15;11.10;99.90
18189;DHT22;9219;50.396;8.546;2022-10-20T11:29:05;11.40;99.90
18189;DHT22;9219;50.396;8.546;2022-10-20T11:31:45;11.40;99.90
18189;DHT22;9219;50.396;8.546;2022-10-20T11:34:22;11.50;99.90
18189;DHT22;9219;50.396;8.546;2022-10-20T11:37:01;11.40;99.90
18189;DHT22;9219;50.396;8.546;2022-10-20T11:39:37;11.40;99.90
18189;DHT22;9219;50.396;8.546;2022-10-20T11:42:19;11.50;99.90
18189;DHT22;9219;50.396;8.546;2022-10-20T11:44:52;11.30;99.90
18189;DHT22;9219;50.396;8.546;2022-10-20T11:47:26;11.40;99.90
18189;DHT22;9219;50.396;8.546;2022-10-20T11:55:20;11.50;99.90
18189;DHT22;9219;50.396;8.546;2022-10-20T11:58:14;11.70;99.90
18189;DHT22;9219;50.396;8.546;2022-10-20T12:00:58;11.70;99.90
18189;DHT22;9219;50.396;8.546;2022-10-20T12:03:52;11.80;99.90
18189;DHT22;9219;50.396;8.546;2022-10-20T12:12:24;11.90;99.90
18189;DHT22;9219;50.396;8.546;2022-10-20T12:29:45;12.00;99.90
18189;DHT22;9219;50.396;8.546;2022-10-20T12:32:57;12.00;99.90
18189;DHT22;9219;50.396;8.546;2022-10-20T12:43:49;12.20;99.90
18189;DHT22;9219;50.396;8.546;2022-10-20T12:46:21;12.20;99.90
18189;DHT22;9219;50.396;8.546;2022-10-20T12:48:56;12.20;99.90
18189;DHT22;9219;50.396;8.546;2022-10-20T12:51:35;12.20;99.90
18189;DHT22;9219;50.396;8.546;2022-10-20T12:54:18;12.20;99.90
18189;DHT22;9219;50.396;8.546;2022-10-20T12:56:48;12.10;99.90
18189;DHT22;9219;50.396;8.546;2022-10-20T12:59:36;12.00;99.90
18189;DHT22;9219;50.396;8.546;2022-10-20T13:10:33;12.30;99.90
18189;DHT22;9219;50.396;8.546;2022-10-20T13:16:17;12.50;99.90
18189;DHT22;9219;50.396;8.546;2022-10-20T13:18:49;12.30;99.90
18189;DHT22;9219;50.396;8.546;2022-10-20T13:21:31;12.30;99.90
18189;DHT22;9219;50.396;8.546;2022-10-20T13:24:11;12.20;99.90
18189;DHT22;9219;50.396;8.546;2022-10-20T13:29:58;12.40;99.90
18189;DHT22;9219;50.396;8.546;2022-10-20T13:32:32;12.60;99.90
18189;DHT22;9219;50.396;8.546;2022-10-20T13:35:41;12.40;99.90
18189;DHT22;9219;50.396;8.546;2022-10-20T13:38:34;12.20;99.90
18189;DHT22;9219;50.396;8.546;2022-10-20T13:41:29;12.00;99.90
18189;DHT22;9219;50.396;8.546;2022-10-20T13:44:19;11.80;99.90
18189;DHT22;9219;50.396;8.546;2022-10-20T13:47:05;11.70;99.90
18189;DHT22;9219;50.396;8.546;2022-10-20T13:49:46;11.70;99.90
18189;DHT22;9219;50.396;8.546;2022-10-20T13:58:16;11.70;99.90
18189;DHT22;9219;50.396;8.546;2022-10-20T14:01:00;11.70;99.90
18189;DHT22;9219;50.396;8.546;2022-10-20T14:03:54;11.70;99.90
18189;DHT22;9219;50.396;8.546;2022-10-20T14:06:36;11.80;99.90
18189;DHT22;9219;50.396;8.546;2022-10-20T14:09:14;11.80;99.90
18189;DHT22;9219;50.396;8.546;2022-10-20T14:12:01;11.80;99.90
18189;DHT22;9219;50.396;8.546;2022-10-20T14:14:50;11.80;99.90
18189;DHT22;9219;50.396;8.546;2022-10-20T14:25:01;11.90;99.90
18189;DHT22;9219;50.396;8.546;2022-10-20T14:27:35;12.10;99.90
18189;DHT22;9219;50.396;8.546;2022-10-20T14:30:12;12.20;99.90
18189;DHT22;9219;50.396;8.546;2022-10-20T14:32:47;12.10;99.90
18189;DHT22;9219;50.396;8.546;2022-10-20T14:35:22;12.10;99.90
18189;DHT22;9219;50.396;8.546;2022-10-20T14:38:04;12.10;99.90
18189;DHT22;9219;50.396;8.546;2022-10-20T14:40:37;12.20;99.90
18189;DHT22;9219;50.396;8.546;2022-10-20T14:43:15;12.20;99.90
18189;DHT22;9219;50.396;8.546;2022-10-20T14:45:52;12.20;99.90
18189;DHT22;9219;50.396;8.546;2022-10-20T14:57:57;12.10;99.90
18189;DHT22;9219;50.396;8.546;2022-10-20T15:00:36;12.10;99.90
18189;DHT22;9219;50.396;8.546;2022-10-20T15:03:06;12.20;99.90
18189;DHT22;9219;50.396;8.546;2022-10-20T15:05:41;12.20;99.90
18189;DHT22;9219;50.396;8.546;2022-10-20T15:08:23;12.20;99.90
18189;DHT22;9219;50.396;8.546;2022-10-20T15:10:59;12.30;99.90
18189;DHT22;9219;50.396;8.546;2022-10-20T15:17:32;12.30;99.90
18189;DHT22;9219;50.396;8.546;2022-10-20T15:20:31;12.30;99.90
18189;DHT22;9219;50.396;8.546;2022-10-20T15:23:07;12.50;99.90
18189;DHT22;9219;50.396;8.546;2022-10-20T15:25:44;12.40;99.90
18189;DHT22;9219;50.396;8.546;2022-10-20T15:28:28;12.40;99.90
18189;DHT22;9219;50.396;8.546;2022-10-20T15:31:00;12.30;99.90
18189;DHT22;9219;50.396;8.546;2022-10-20T15:33:30;12.30;99.90
18189;DHT22;9219;50.396;8.546;2022-10-20T15:41:07;12.40;99.90
18189;DHT22;9219;50.396;8.546;2022-10-20T15:43:37;12.40;99.90
18189;DHT22;9219;50.396;8.546;2022-10-20T15:46:10;12.50;99.90
18189;DHT22;9219;50.396;8.546;2022-10-20T15:48:45;12.40;99.90
18189;DHT22;9219;50.396;8.546;2022-10-20T15:51:18;12.20;99.90
18189;DHT22;9219;50.396;8.546;2022-10-20T15:53:50;12.20;99.90
18189;DHT22;9219;50.396;8.546;2022-10-20T15:56:23;12.20;99.90
18189;DHT22;9219;50.396;8.546;2022-10-20T15:58:52;12.10;99.90
18189;DHT22;9219;50.396;8.546;2022-10-20T16:05:34;12.50;99.90
18189;DHT22;9219;50.396;8.546;2022-10-20T16:08:04;12.60;99.90
18189;DHT22;9219;50.396;8.546;2022-10-20T16:10:33;12.70;99.90
18189;DHT22;9219;50.396;8.546;2022-10-20T16:13:02;12.60;99.90
18189;DHT22;9219;50.396;8.546;2022-10-20T16:15:31;12.60;99.90
18189;DHT22;9219;50.396;8.546;2022-10-20T16:18:00;12.50;99.90
18189;DHT22;9219;50.396;8.546;2022-10-20T16:20:37;12.50;99.90
18189;DHT22;9219;50.396;8.546;2022-10-20T16:26:04;12.50;99.90
18189;DHT22;9219;50.396;8.546;2022-10-20T16:28:35;12.60;99.90
18189;DHT22;9219;50.396;8.546;2022-10-20T16:31:06;12.70;99.90
18189;DHT22;9219;50.396;8.546;2022-10-20T16:33:35;12.80;99.90
18189;DHT22;9219;50.396;8.546;2022-10-20T16:36:08;12.80;99.90
18189;DHT22;9219;50.396;8.546;2022-10-20T16:38:41;12.80;99.90
18189;DHT22;9219;50.396;8.546;2022-10-20T16:41:14;12.90;99.90
18189;DHT22;9219;50.396;8.546;2022-10-20T16:48:00;12.90;99.90
18189;DHT22;9219;50.396;8.546;2022-10-20T16:50:29;12.90;99.90
18189;DHT22;9219;50.396;8.546;2022-10-20T16:52:57;12.90;99.90
18189;DHT22;9219;50.396;8.546;2022-10-20T16:55:27;12.90;99.90
18189;DHT22;9219;50.396;8.546;2022-10-20T16:57:56;12.90;99.90
18189;DHT22;9219;50.396;8.546;2022-10-20T17:00:24;12.90;99.90
18189;DHT22;9219;50.396;8.546;2022-10-20T17:02:52;12.90;99.90
18189;DHT22;9219;50.396;8.546;2022-10-20T17:08:11;12.90;99.90
18189;DHT22;9219;50.396;8.546;2022-10-20T17:10:40;12.90;99.90
18189;DHT22;9219;50.396;8.546;2022-10-20T17:13:10;13.00;99.90
18189;DHT22;9219;50.396;8.546;2022-10-20T17:15:38;12.90;99.90
18189;DHT22;9219;50.396;8.546;2022-10-20T17:18:07;13.00;99.90
18189;DHT22;9219;50.396;8.546;2022-10-20T17:20:37;13.00;99.90
18189;DHT22;9219;50.396;8.546;2022-10-20T17:23:08;12.90;99.90
18189;DHT22;9219;50.396;8.546;2022-10-20T17:30:42;12.90;99.90
18189;DHT22;9219;50.396;8.546;2022-10-20T17:33:12;13.10;99.90
18189;DHT22;9219;50.396;8.546;2022-10-20T17:35:46;13.00;99.90
18189;DHT22;9219;50.396;8.546;2022-10-20T17:46:19;13.10;99.90
18189;DHT22;9219;50.396;8.546;2022-10-20T17:48:52;13.10;99.90
18189;DHT22;9219;50.396;8.546;2022-10-20T17:51:22;13.10;99.90
18189;DHT22;9219;50.396;8.546;2022-10-20T17:59:05;13.10;99.90
18189;DHT22;9219;50.396;8.546;2022-10-20T18:01:38;13.10;99.90
18189;DHT22;9219;50.396;8.546;2022-10-20T18:04:11;13.10;99.90
18189;DHT22;9219;50.396;8.546;2022-10-20T18:06:42;13.10;99.90
18189;DHT22;9219;50.396;8.546;2022-10-20T18:09:18;13.10;99.90
18189;DHT22;9219;50.396;8.546;2022-10-20T18:11:49;12.70;99.90
18189;DHT22;9219;50.396;8.546;2022-10-20T18:14:21;12.70;99.90
18189;DHT22;9219;50.396;8.546;2022-10-20T18:19:42;12.90;99.90
18189;DHT22;9219;50.396;8.546;2022-10-20T18:22:10;13.00;99.90
18189;DHT22;9219;50.396;8.546;2022-10-20T18:24:39;12.80;99.90
18189;DHT22;9219;50.396;8.546;2022-10-20T18:27:10;12.90;99.90
18189;DHT22;9219;50.396;8.546;2022-10-20T18:29:44;13.00;99.90
18189;DHT22;9219;50.396;8.546;2022-10-20T18:32:14;13.20;99.90
18189;DHT22;9219;50.396;8.546;2022-10-20T18:34:45;13.30;99.90
18189;DHT22;9219;50.396;8.546;2022-10-20T18:37:14;13.10;99.90
18189;DHT22;9219;50.396;8.546;2022-10-20T18:45:08;12.90;99.90
18189;DHT22;9219;50.396;8.546;2022-10-20T18:47:43;13.30;99.90
18189;DHT22;9219;50.396;8.546;2022-10-20T18:50:22;13.40;99.90
18189;DHT22;9219;50.396;8.546;2022-10-20T18:52:51;13.40;99.90
18189;DHT22;9219;50.396;8.546;2022-10-20T18:55:21;13.50;99.90
18189;DHT22;9219;50.396;8.546;2022-10-20T18:57:51;13.20;99.90
18189;DHT22;9219;50.396;8.546;2022-10-20T19:00:22;13.00;99.90
18189;DHT22;9219;50.396;8.546;2022-10-20T19:02:57;12.70;99.90
18189;DHT22;9219;50.396;8.546;2022-10-20T19:08:34;13.30;99.90
18189;DHT22;9219;50.396;8.546;2022-10-20T19:11:07;13.30;99.90
18189;DHT22;9219;50.396;8.546;2022-10-20T19:13:37;13.30;99.90
18189;DHT22;9219;50.396;8.546;2022-10-20T19:16:07;13.40;99.90
18189;DHT22;9219;50.396;8.546;2022-10-20T19:18:37;13.40;99.90
18189;DHT22;9219;50.396;8.546;2022-10-20T19:21:07;13.60;99.90
18189;DHT22;9219;50.396;8.546;2022-10-20T19:23:39;13.60;99.90
18189;DHT22;9219;50.396;8.546;2022-10-20T19:26:11;13.70;99.90
18189;DHT22;9219;50.396;8.546;2022-10-20T19:29:09;13.80;99.90
18189;DHT22;9219;50.396;8.546;2022-10-20T19:31:40;13.90;99.90
18189;DHT22;9219;50.396;8.546;2022-10-20T19:34:15;13.80;99.90
18189;DHT22;9219;50.396;8.546;2022-10-20T19:36:46;14.00;99.90
18189;DHT22;9219;50.396;8.546;2022-10-20T19:39:18;14.10;99.90
18189;DHT22;9219;50.396;8.546;2022-10-20T19:41:48;14.10;99.90
18189;DHT22;9219;50.396;8.546;2022-10-20T19:44:20;14.10;99.90
18189;DHT22;9219;50.396;8.546;2022-10-20T19:51:24;14.10;99.90
18189;DHT22;9219;50.396;8.546;2022-10-20T19:53:54;14.10;99.90
18189;DHT22;9219;50.396;8.546;2022-10-20T19:56:28;14.10;99.90
18189;DHT22;9219;50.396;8.546;2022-10-20T19:58:58;14.10;99.90
18189;DHT22;9219;50.396;8.546;2022-10-20T20:01:28;14.10;99.90
18189;DHT22;9219;50.396;8.546;2022-10-20T20:03:58;14.10;99.90
18189;DHT22;9219;50.396;8.546;2022-10-20T20:06:28;14.10;99.90
18189;DHT22;9219;50.396;8.546;2022-10-20T20:12:04;14.10;99.90
18189;DHT22;9219;50.396;8.546;2022-10-20T20:14:38;13.90;99.90
18189;DHT22;9219;50.396;8.546;2022-10-20T20:17:14;13.60;99.90
18189;DHT22;9219;50.396;8.546;2022-10-20T20:19:45;13.50;99.90
18189;DHT22;9219;50.396;8.546;2022-10-20T20:22:16;13.40;99.90
18189;DHT22;9219;50.396;8.546;2022-10-20T20:24:44;13.50;99.90
18189;DHT22;9219;50.396;8.546;2022-10-20T20:27:14;13.50;99.90
18189;DHT22;9219;50.396;8.546;2022-10-20T20:29:43;13.00;99.90
18189;DHT22;9219;50.396;8.546;2022-10-20T20:37:13;13.20;99.90
18189;DHT22;9219;50.396;8.546;2022-10-20T20:39:42;13.00;99.90
18189;DHT22;9219;50.396;8.546;2022-10-20T20:42:12;13.20;99.90
18189;DHT22;9219;50.396;8.546;2022-10-20T20:44:40;13.10;99.90
18189;DHT22;9219;50.396;8.546;2022-10-20T20:47:10;13.30;99.90
18189;DHT22;9219;50.396;8.546;2022-10-20T20:49:38;13.40;99.90
18189;DHT22;9219;50.396;8.546;2022-10-20T20:52:05;13.50;99.90
18189;DHT22;9219;50.396;8.546;2022-10-20T20:59:41;13.50;99.90